Terminal Aerodrome Forecast
Issued by NWS Tulsa, OK

Home | Current Version | Previous Version | Text Only | Print | Product List | Glossary On
Versions: 1 2 3 4 5 6 7 8 9 10 11 12 13
000
FTUS44 KTSA 251720
TAFFSM
TAF
KFSM 251720Z 2518/2618 13008KT P6SM SKC
     FM260200 09006KT P6SM SCT250
     FM261300 11007KT P6SM BKN025
     FM261600 17010KT P6SM BKN025=

USA.gov is the U.S. government's official web portal to all federal, state and local government web resources and services.